createdAt,value
2023-07-01T00:01:12.063Z,80.40
2023-07-01T00:03:40.062Z,80.60
2023-07-01T00:06:07.276Z,80.60
2023-07-01T00:08:34.710Z,80.60
2023-07-01T00:11:02.346Z,80.50
2023-07-01T00:13:33.667Z,80.40
2023-07-01T00:16:01.358Z,80.30
2023-07-01T00:18:28.771Z,80.30
2023-07-01T00:20:56.324Z,80.30
2023-07-01T00:23:26.504Z,80.40
2023-07-01T00:25:54.180Z,80.40
2023-07-01T00:28:22.069Z,80.30
2023-07-01T00:30:49.702Z,80.40
2023-07-01T00:33:17.851Z,80.40
2023-07-01T00:35:48.821Z,80.70
2023-07-01T00:38:16.065Z,80.80
2023-07-01T00:40:43.594Z,81.00
2023-07-01T00:43:10.929Z,81.00
2023-07-01T00:45:38.185Z,81.10
2023-07-01T00:48:06.045Z,81.00
2023-07-01T00:50:33.543Z,80.90
2023-07-01T00:53:00.780Z,81.10
2023-07-01T00:55:28.173Z,81.50
2023-07-01T00:57:55.748Z,81.80
2023-07-01T01:00:23.262Z,82.00
2023-07-01T01:02:56.803Z,81.70
2023-07-01T01:05:29.676Z,81.90
2023-07-01T01:08:15.968Z,82.00
2023-07-01T01:10:43.725Z,82.00
2023-07-01T01:13:11.183Z,82.00
2023-07-01T01:15:38.350Z,81.70
2023-07-01T01:18:06.385Z,81.60
2023-07-01T01:20:34.792Z,81.50
2023-07-01T01:23:15.261Z,81.60
2023-07-01T01:25:50.569Z,81.80
2023-07-01T01:28:19.062Z,81.80
2023-07-01T01:30:46.455Z,81.70
2023-07-01T01:33:13.905Z,81.60
2023-07-01T01:35:41.787Z,81.80
2023-07-01T01:38:21.336Z,81.80
2023-07-01T01:40:58.350Z,81.80
2023-07-01T01:44:03.543Z,81.40
2023-07-01T01:46:30.773Z,81.30
2023-07-01T01:48:58.516Z,81.70
2023-07-01T01:51:25.767Z,82.10
2023-07-01T01:53:53.539Z,82.20
2023-07-01T01:56:21.183Z,82.10
2023-07-01T01:58:48.963Z,82.00
2023-07-01T02:01:17.318Z,82.00
2023-07-01T02:03:46.263Z,81.90
2023-07-01T02:06:14.934Z,82.10
2023-07-01T02:08:42.078Z,82.10
2023-07-01T02:11:09.202Z,82.10
2023-07-01T02:13:36.370Z,82.20
2023-07-01T02:16:03.614Z,82.20
2023-07-01T02:18:30.776Z,82.30
2023-07-01T02:20:58.092Z,82.30
2023-07-01T02:23:33.033Z,82.80
2023-07-01T02:26:00.234Z,82.40
2023-07-01T02:28:28.025Z,82.20
2023-07-01T02:30:56.115Z,82.30
2023-07-01T02:33:23.373Z,82.10
2023-07-01T02:35:50.492Z,82.00
2023-07-01T02:38:17.839Z,81.80
2023-07-01T02:40:45.186Z,81.50
2023-07-01T02:43:12.587Z,82.30
2023-07-01T02:45:39.729Z,81.70
2023-07-01T02:48:07.136Z,81.60
2023-07-01T02:50:34.270Z,81.60
2023-07-01T02:53:01.721Z,81.50
2023-07-01T02:55:31.333Z,81.50
2023-07-01T02:57:58.559Z,81.60
2023-07-01T03:00:25.768Z,81.50
2023-07-01T03:02:52.986Z,81.40
2023-07-01T03:05:24.967Z,81.30
2023-07-01T03:07:54.023Z,81.30
2023-07-01T03:10:22.134Z,81.30
2023-07-01T03:12:49.717Z,81.20
2023-07-01T03:15:16.906Z,81.20
2023-07-01T03:17:44.299Z,81.10
2023-07-01T03:20:24.477Z,81.10
2023-07-01T03:22:52.582Z,80.70
2023-07-01T03:25:19.872Z,80.70
2023-07-01T03:27:48.547Z,80.60
2023-07-01T03:30:16.717Z,80.50
2023-07-01T03:32:47.363Z,80.50
2023-07-01T03:35:15.170Z,80.60
2023-07-01T03:37:43.293Z,80.50
2023-07-01T03:40:13.604Z,80.50
2023-07-01T03:42:44.154Z,80.50
2023-07-01T03:45:11.711Z,80.50
2023-07-01T03:47:39.902Z,80.80
2023-07-01T03:50:10.754Z,80.60
2023-07-01T03:52:39.885Z,80.50
2023-07-01T03:55:09.401Z,80.40
2023-07-01T03:57:36.744Z,80.20
2023-07-01T04:00:34.102Z,80.40
2023-07-01T04:03:07.344Z,80.60
2023-07-01T04:05:35.632Z,80.60
2023-07-01T04:08:03.195Z,80.50
2023-07-01T04:10:30.393Z,81.10
2023-07-01T04:12:59.428Z,80.30
2023-07-01T04:15:26.569Z,80.30
2023-07-01T04:17:53.943Z,80.20
2023-07-01T04:20:21.191Z,80.00
2023-07-01T04:22:49.174Z,80.20
2023-07-01T04:25:16.707Z,80.00
2023-07-01T04:27:44.402Z,79.90
2023-07-01T04:30:13.678Z,79.80
2023-07-01T04:32:41.268Z,79.80
2023-07-01T04:35:08.699Z,79.70
2023-07-01T04:37:38.360Z,79.50
2023-07-01T04:40:08.413Z,79.20
2023-07-01T04:42:35.906Z,78.80
2023-07-01T04:45:03.315Z,78.90
2023-07-01T04:47:31.192Z,78.90
2023-07-01T04:49:58.444Z,79.00
2023-07-01T04:52:25.935Z,79.00
2023-07-01T04:54:54.059Z,79.20
2023-07-01T04:57:21.409Z,79.10
2023-07-01T04:59:48.629Z,78.70
2023-07-01T05:02:15.985Z,78.30
2023-07-01T05:04:43.297Z,78.40
2023-07-01T05:07:11.804Z,78.50
2023-07-01T05:09:39.086Z,78.60
2023-07-01T05:12:08.071Z,78.80
2023-07-01T05:14:35.769Z,79.00
2023-07-01T05:17:03.058Z,78.70
2023-07-01T05:19:30.389Z,78.70
2023-07-01T05:21:57.592Z,78.80
2023-07-01T05:24:25.630Z,78.90
2023-07-01T05:26:52.988Z,78.80
2023-07-01T05:29:22.205Z,78.80
2023-07-01T05:31:50.395Z,78.80
2023-07-01T05:34:18.110Z,78.70
2023-07-01T05:36:46.047Z,78.50
2023-07-01T05:39:14.099Z,79.70
2023-07-01T05:41:42.311Z,79.70
2023-07-01T05:44:09.742Z,79.60
2023-07-01T05:46:37.359Z,79.20
2023-07-01T05:49:05.035Z,79.00
2023-07-01T05:51:33.634Z,78.60
2023-07-01T05:54:01.001Z,78.60
2023-07-01T05:56:28.721Z,78.30
2023-07-01T05:58:55.901Z,77.80
2023-07-01T06:01:23.108Z,77.30
2023-07-01T06:03:50.325Z,76.90
2023-07-01T06:06:17.754Z,77.20
2023-07-01T06:08:47.448Z,77.20
2023-07-01T06:11:14.978Z,76.80
2023-07-01T06:13:50.019Z,76.30
2023-07-01T06:16:17.860Z,76.40
2023-07-01T06:18:45.317Z,76.50
2023-07-01T06:21:12.691Z,76.90
2023-07-01T06:23:40.076Z,76.80
2023-07-01T06:26:07.997Z,76.90
2023-07-01T06:28:35.514Z,77.00
2023-07-01T06:31:10.436Z,76.30
2023-07-01T06:33:40.093Z,75.70
2023-07-01T06:36:07.999Z,75.30
2023-07-01T06:38:35.269Z,73.90
2023-07-01T06:41:02.700Z,72.70
2023-07-01T06:43:29.884Z,72.00
2023-07-01T06:45:57.482Z,71.30
2023-07-01T06:48:24.903Z,70.30
2023-07-01T06:50:52.168Z,70.20
2023-07-01T06:53:19.513Z,70.20
2023-07-01T06:55:46.746Z,69.20
2023-07-01T06:58:13.990Z,66.80
2023-07-01T07:00:41.271Z,66.60
2023-07-01T07:03:08.927Z,66.20
2023-07-01T07:05:36.282Z,65.00
2023-07-01T07:08:03.665Z,64.30
2023-07-01T07:10:31.433Z,63.40
2023-07-01T07:13:00.696Z,62.30
2023-07-01T07:15:28.127Z,62.10
2023-07-01T07:17:55.383Z,62.40
2023-07-01T07:20:22.804Z,61.00
2023-07-01T07:22:49.964Z,61.30
2023-07-01T07:25:18.319Z,61.80
2023-07-01T07:27:46.382Z,61.10
2023-07-01T07:30:14.679Z,59.00
2023-07-01T07:32:43.555Z,57.80
2023-07-01T07:35:10.840Z,57.40
2023-07-01T07:37:38.416Z,56.50
2023-07-01T07:40:07.292Z,55.80
2023-07-01T07:42:34.935Z,55.40
2023-07-01T07:45:03.150Z,55.60
2023-07-01T07:47:32.691Z,56.00
2023-07-01T07:50:01.391Z,55.60
2023-07-01T07:52:29.040Z,56.40
2023-07-01T07:54:56.270Z,57.90
2023-07-01T07:57:24.289Z,57.50
2023-07-01T07:59:51.471Z,56.40
2023-07-01T08:02:18.675Z,57.00
2023-07-01T08:04:47.381Z,57.50
2023-07-01T08:07:14.804Z,55.70
2023-07-01T08:09:41.989Z,55.60
2023-07-01T08:12:11.424Z,54.50
2023-07-01T08:14:40.208Z,54.40
2023-07-01T08:17:07.673Z,54.80
2023-07-01T08:19:35.186Z,54.30
2023-07-01T08:22:02.664Z,55.60
2023-07-01T08:24:30.406Z,54.90
2023-07-01T08:26:57.866Z,54.00
2023-07-01T08:29:25.734Z,53.00
2023-07-01T08:31:53.193Z,50.90
2023-07-01T08:34:20.435Z,52.20
2023-07-01T08:36:49.052Z,51.50
2023-07-01T08:39:16.635Z,49.60
2023-07-01T08:41:54.168Z,49.90
2023-07-01T08:44:22.661Z,48.80
2023-07-01T08:46:54.036Z,48.60
2023-07-01T08:49:23.322Z,48.30
2023-07-01T08:51:57.241Z,47.90
2023-07-01T08:54:24.605Z,47.60
2023-07-01T08:56:51.827Z,47.70
2023-07-01T08:59:40.329Z,48.10
2023-07-01T09:02:07.812Z,47.90
2023-07-01T09:04:39.373Z,48.30
2023-07-01T09:07:07.104Z,47.70
2023-07-01T09:09:35.352Z,47.20
2023-07-01T09:12:02.499Z,47.30
2023-07-01T09:15:00.569Z,46.90
2023-07-01T09:17:34.640Z,46.30
2023-07-01T09:20:04.343Z,46.10
2023-07-01T09:22:31.874Z,46.50
2023-07-01T09:24:59.033Z,46.10
2023-07-01T09:27:40.629Z,46.50
2023-07-01T09:30:26.602Z,45.90
2023-07-01T09:33:10.501Z,45.40
2023-07-01T09:35:45.224Z,45.80
2023-07-01T09:38:16.031Z,47.00
2023-07-01T09:40:43.851Z,47.40
2023-07-01T09:43:11.221Z,46.80
2023-07-01T09:45:38.515Z,46.80
2023-07-01T09:48:15.965Z,45.80
2023-07-01T09:50:43.261Z,46.40
2023-07-01T09:53:21.258Z,46.30
2023-07-01T09:55:49.130Z,47.00
2023-07-01T09:58:17.214Z,48.30
2023-07-01T10:00:46.256Z,48.70
2023-07-01T10:03:14.119Z,49.20
2023-07-01T10:05:44.615Z,48.50
2023-07-01T10:08:13.636Z,49.00
2023-07-01T10:10:41.081Z,49.70
2023-07-01T10:13:11.201Z,49.80
2023-07-01T10:15:40.363Z,50.20
2023-07-01T10:18:23.646Z,50.10
2023-07-01T10:20:54.434Z,51.40
2023-07-01T10:23:33.748Z,51.20
2023-07-01T10:26:01.301Z,50.90
2023-07-01T10:28:28.550Z,50.40
2023-07-01T10:30:55.671Z,50.20
2023-07-01T10:33:46.045Z,49.90
2023-07-01T10:36:22.871Z,48.90
2023-07-01T10:38:50.179Z,49.40
2023-07-01T10:41:20.915Z,50.00
2023-07-01T10:43:48.051Z,51.20
2023-07-01T10:46:21.028Z,51.50
2023-07-01T10:49:06.947Z,51.60
2023-07-01T10:51:54.481Z,52.80
2023-07-01T10:54:31.351Z,53.90
2023-07-01T10:57:18.792Z,54.80
2023-07-01T10:59:46.695Z,55.10
2023-07-01T11:02:37.651Z,56.20
2023-07-01T11:05:08.858Z,56.90
2023-07-01T11:07:38.188Z,57.80
2023-07-01T11:10:09.220Z,58.20
2023-07-01T11:12:37.124Z,59.10
2023-07-01T11:15:04.552Z,59.50
2023-07-01T11:17:31.977Z,60.90
2023-07-01T11:20:02.259Z,61.40
2023-07-01T11:22:29.508Z,62.40
2023-07-01T11:25:06.032Z,62.10
2023-07-01T11:27:33.544Z,62.40
2023-07-01T11:30:00.884Z,61.90
2023-07-01T11:32:28.137Z,62.30
2023-07-01T11:34:58.419Z,62.50
2023-07-01T11:37:26.818Z,62.40
2023-07-01T11:39:57.114Z,61.80
2023-07-01T11:42:26.913Z,61.90
2023-07-01T11:44:54.491Z,62.30
2023-07-01T11:47:22.251Z,63.00
2023-07-01T11:49:49.808Z,64.10
2023-07-01T11:52:24.856Z,64.70
2023-07-01T11:54:54.172Z,62.30
2023-07-01T11:57:22.322Z,62.30
2023-07-01T11:59:53.864Z,61.70
2023-07-01T12:02:28.713Z,61.20
2023-07-01T12:04:56.197Z,60.50
2023-07-01T12:07:23.663Z,60.90
2023-07-01T12:09:54.445Z,61.70
2023-07-01T12:12:35.524Z,61.90
2023-07-01T12:15:14.113Z,60.90
2023-07-01T12:17:41.476Z,62.20
2023-07-01T12:20:11.441Z,62.00
2023-07-01T12:22:39.545Z,61.00
2023-07-01T12:25:06.973Z,60.70
2023-07-01T12:27:36.339Z,61.10
2023-07-01T12:30:11.095Z,61.40
2023-07-01T12:32:40.491Z,61.10
2023-07-01T12:35:11.704Z,61.00
2023-07-01T12:37:42.632Z,59.70
2023-07-01T12:40:10.449Z,59.80
2023-07-01T12:42:38.187Z,58.90
2023-07-01T12:45:07.267Z,58.30
2023-07-01T12:47:34.611Z,58.50
2023-07-01T12:50:02.161Z,58.80
2023-07-01T12:52:39.773Z,58.50
2023-07-01T12:55:11.071Z,58.50
2023-07-01T12:57:38.420Z,57.80
2023-07-01T13:00:07.526Z,57.40
2023-07-01T13:02:36.044Z,57.30
2023-07-01T13:05:05.185Z,56.60
2023-07-01T13:07:33.269Z,56.10
2023-07-01T13:10:01.924Z,55.80
2023-07-01T13:12:32.483Z,55.30
2023-07-01T13:15:01.809Z,55.50
2023-07-01T13:17:46.914Z,56.20
2023-07-01T13:20:14.259Z,56.10
2023-07-01T13:22:41.351Z,56.70
2023-07-01T13:25:10.564Z,56.70
2023-07-01T13:27:40.284Z,55.30
2023-07-01T13:30:08.326Z,55.90
2023-07-01T13:32:36.023Z,57.10
2023-07-01T13:35:04.714Z,57.80
2023-07-01T13:37:33.485Z,57.70
2023-07-01T13:40:00.777Z,57.70
2023-07-01T13:42:28.276Z,57.30
2023-07-01T13:44:57.322Z,57.10
2023-07-01T13:47:47.707Z,57.30
2023-07-01T13:50:25.386Z,57.30
2023-07-01T13:52:58.178Z,56.80
2023-07-01T13:55:29.710Z,55.90
2023-07-01T13:57:57.059Z,55.00
2023-07-01T14:00:43.901Z,55.00
2023-07-01T14:03:46.236Z,55.70
2023-07-01T14:06:17.402Z,56.10
2023-07-01T14:08:44.956Z,56.30
2023-07-01T14:11:21.947Z,56.50
2023-07-01T14:13:52.396Z,57.10
2023-07-01T14:16:21.061Z,57.40
2023-07-01T14:18:48.419Z,57.40
2023-07-01T14:21:19.667Z,57.00
2023-07-01T14:23:47.824Z,58.00
2023-07-01T14:26:27.283Z,57.50
2023-07-01T14:28:54.641Z,57.50
2023-07-01T14:31:33.493Z,57.30
2023-07-01T14:34:04.213Z,58.00
2023-07-01T14:36:34.316Z,55.50
2023-07-01T14:39:05.328Z,56.10
2023-07-01T14:41:34.007Z,56.10
2023-07-01T14:44:21.450Z,55.90
2023-07-01T14:46:48.642Z,55.80
2023-07-01T14:49:16.016Z,57.00
2023-07-01T14:51:43.319Z,57.30
2023-07-01T14:54:11.071Z,57.20
2023-07-01T14:56:38.666Z,56.50
2023-07-01T14:59:05.798Z,56.50
2023-07-01T15:01:33.071Z,55.60
2023-07-01T15:04:00.670Z,54.90
2023-07-01T15:06:27.915Z,54.60
2023-07-01T15:08:55.020Z,53.50
2023-07-01T15:11:22.208Z,53.70
2023-07-01T15:13:50.035Z,53.70
2023-07-01T15:16:18.366Z,53.50
2023-07-01T15:18:46.368Z,53.40
2023-07-01T15:21:13.541Z,53.40
2023-07-01T15:23:41.684Z,53.50
2023-07-01T15:26:08.875Z,53.80
2023-07-01T15:28:36.218Z,53.90
2023-07-01T15:31:07.438Z,54.50
2023-07-01T15:33:35.098Z,55.00
2023-07-01T15:36:02.497Z,55.00
2023-07-01T15:38:30.037Z,55.00
2023-07-01T15:40:57.430Z,55.40
2023-07-01T15:43:24.495Z,55.10
2023-07-01T15:45:53.278Z,55.00
2023-07-01T15:48:21.028Z,55.00
2023-07-01T15:50:48.512Z,55.30
2023-07-01T15:53:15.703Z,55.40
2023-07-01T15:55:43.024Z,55.70
2023-07-01T15:58:10.235Z,55.90
2023-07-01T16:00:38.591Z,54.70
2023-07-01T16:03:06.030Z,54.70
2023-07-01T16:05:33.297Z,54.60
2023-07-01T16:08:02.277Z,54.50
2023-07-01T16:10:31.627Z,54.30
2023-07-01T16:13:05.025Z,54.10
2023-07-01T16:16:04.376Z,54.00
2023-07-01T16:18:49.124Z,54.20
2023-07-01T16:21:17.418Z,54.30
2023-07-01T16:23:53.718Z,54.50
2023-07-01T16:26:44.108Z,54.50
2023-07-01T16:29:19.169Z,54.30
2023-07-01T16:31:46.931Z,54.50
2023-07-01T16:34:14.874Z,54.70
2023-07-01T16:36:45.804Z,55.00
2023-07-01T16:39:14.504Z,55.50
2023-07-01T16:41:41.992Z,55.50
2023-07-01T16:44:09.736Z,55.70
2023-07-01T16:46:38.680Z,55.10
2023-07-01T16:49:07.513Z,55.20
2023-07-01T16:51:40.777Z,55.20
2023-07-01T16:54:46.617Z,55.20
2023-07-01T16:57:19.773Z,55.20
2023-07-01T16:59:53.588Z,55.70
2023-07-01T17:08:23.469Z,55.10
2023-07-01T17:10:51.053Z,55.50
2023-07-01T17:13:24.737Z,56.00
2023-07-01T17:15:53.729Z,56.20
2023-07-01T17:18:22.640Z,56.70
2023-07-01T17:20:49.999Z,57.00
2023-07-01T17:23:17.626Z,57.00
2023-07-01T17:25:46.033Z,57.40
2023-07-01T17:28:13.978Z,57.90
2023-07-01T17:30:41.611Z,58.20
2023-07-01T17:33:17.575Z,59.20
2023-07-01T17:35:44.965Z,59.10
2023-07-01T17:38:12.277Z,59.70
2023-07-01T17:40:40.486Z,60.30
2023-07-01T17:43:07.995Z,60.70
2023-07-01T17:45:35.252Z,61.20
2023-07-01T17:48:03.554Z,61.60
2023-07-01T17:50:32.630Z,62.10
2023-07-01T17:53:00.659Z,62.80
2023-07-01T17:55:30.898Z,63.30
2023-07-01T17:58:01.195Z,63.70
2023-07-01T18:00:28.468Z,64.00
2023-07-01T18:02:56.256Z,64.30
2023-07-01T18:05:24.059Z,64.70
2023-07-01T18:07:53.560Z,65.20
2023-07-01T18:10:22.554Z,65.50
2023-07-01T18:12:49.792Z,65.60
2023-07-01T18:15:17.810Z,65.70
2023-07-01T18:17:46.386Z,66.30
2023-07-01T18:20:23.829Z,66.80
2023-07-01T18:22:54.070Z,67.10
2023-07-01T18:25:25.415Z,67.40
2023-07-01T18:27:55.442Z,67.60
2023-07-01T18:30:23.928Z,68.40
2023-07-01T18:32:52.463Z,68.00
2023-07-01T18:35:20.904Z,68.10
2023-07-01T18:37:48.411Z,68.30
2023-07-01T18:40:28.500Z,68.70
2023-07-01T18:45:48.111Z,69.20
2023-07-01T18:50:59.921Z,69.30
2023-07-01T18:56:09.038Z,69.70
2023-07-01T18:58:36.593Z,70.10
2023-07-01T19:01:03.814Z,70.20
2023-07-01T19:03:31.407Z,70.40
2023-07-01T19:05:58.800Z,70.40
2023-07-01T19:08:53.321Z,70.60
2023-07-01T19:11:22.544Z,71.10
2023-07-01T19:13:50.035Z,71.40
2023-07-01T19:16:26.817Z,71.80
2023-07-01T19:18:54.057Z,71.90
2023-07-01T19:21:22.198Z,71.80
2023-07-01T19:23:49.841Z,71.50
2023-07-01T19:26:17.369Z,70.60
2023-07-01T19:28:45.789Z,70.50
2023-07-01T19:31:14.605Z,70.20
2023-07-01T19:33:42.754Z,70.30
2023-07-01T19:36:11.181Z,69.90
2023-07-01T19:38:38.485Z,69.60
2023-07-01T19:41:06.017Z,69.50
2023-07-01T19:43:34.282Z,69.20
2023-07-01T19:46:01.738Z,68.90
2023-07-01T19:48:29.151Z,68.70
2023-07-01T19:50:56.741Z,68.90
2023-07-01T19:53:25.073Z,69.00
2023-07-01T19:55:52.739Z,69.20
2023-07-01T19:58:25.246Z,69.20
2023-07-01T20:00:52.648Z,69.40
2023-07-01T20:03:20.190Z,69.40
2023-07-01T20:05:50.557Z,69.50
2023-07-01T20:08:27.152Z,69.10
2023-07-01T20:11:03.275Z,68.70
2023-07-01T20:13:30.795Z,68.40
2023-07-01T20:16:01.046Z,68.40
2023-07-01T20:18:30.076Z,68.10
2023-07-01T20:20:57.408Z,68.10
2023-07-01T20:23:25.226Z,68.00
2023-07-01T20:25:52.565Z,67.90
2023-07-01T20:28:20.254Z,67.50
2023-07-01T20:30:47.761Z,67.30
2023-07-01T20:33:15.203Z,67.50
2023-07-01T20:35:44.118Z,67.70
2023-07-01T20:38:11.399Z,67.90
2023-07-01T20:40:41.089Z,68.00
2023-07-01T20:43:22.099Z,67.90
2023-07-01T20:49:08.432Z,67.90
2023-07-01T20:51:39.886Z,68.10
2023-07-01T20:55:20.148Z,68.10
2023-07-01T21:00:41.956Z,67.80
2023-07-01T21:03:09.546Z,67.70
2023-07-01T21:05:38.323Z,67.60
2023-07-01T21:08:07.647Z,67.90
2023-07-01T21:10:35.436Z,68.30
2023-07-01T21:13:04.411Z,68.40
2023-07-01T21:15:35.417Z,68.80
2023-07-01T21:18:03.128Z,69.10
2023-07-01T21:20:30.448Z,69.60
2023-07-01T21:23:02.644Z,69.60
2023-07-01T21:29:00.039Z,68.70
2023-07-01T21:31:30.239Z,68.90
2023-07-01T21:33:57.762Z,68.90
2023-07-01T21:36:25.225Z,68.70
2023-07-01T21:38:52.680Z,68.50
2023-07-01T21:41:21.961Z,68.30
2023-07-01T21:43:49.463Z,68.30
2023-07-01T21:46:16.973Z,68.40
2023-07-01T21:48:44.399Z,68.60
2023-07-01T21:51:11.970Z,68.80
2023-07-01T21:53:41.116Z,68.70
2023-07-01T21:56:13.579Z,68.80
2023-07-01T21:59:01.139Z,68.60
2023-07-01T22:01:35.436Z,69.00
2023-07-01T22:04:04.377Z,69.50
2023-07-01T22:06:47.416Z,69.80
2023-07-01T22:09:29.354Z,69.40
2023-07-01T22:11:56.755Z,69.30
2023-07-01T22:14:24.364Z,69.30
2023-07-01T22:16:52.813Z,69.50
2023-07-01T22:19:20.101Z,69.30
2023-07-01T22:21:47.369Z,69.50
2023-07-01T22:24:14.704Z,69.70
2023-07-01T22:26:41.852Z,70.10
2023-07-01T22:29:10.139Z,70.40
2023-07-01T22:31:37.787Z,70.60
2023-07-01T22:34:06.533Z,70.80
2023-07-01T22:36:34.142Z,70.80
2023-07-01T22:39:02.105Z,71.00
2023-07-01T22:41:29.248Z,71.10
2023-07-01T22:43:58.800Z,70.60
2023-07-01T22:46:26.508Z,70.80
2023-07-01T22:48:54.896Z,71.10
2023-07-01T22:51:22.171Z,71.40
2023-07-01T22:53:52.411Z,71.40
2023-07-01T22:56:23.398Z,71.60
2023-07-01T22:58:52.689Z,71.60
2023-07-01T23:01:20.471Z,71.50
2023-07-01T23:03:47.764Z,71.50
2023-07-01T23:06:15.116Z,71.70
2023-07-01T23:08:42.513Z,71.80
2023-07-01T23:11:09.900Z,71.90
2023-07-01T23:13:37.229Z,72.10
2023-07-01T23:16:04.593Z,72.10
2023-07-01T23:18:32.335Z,72.10
2023-07-01T23:20:59.940Z,72.10
2023-07-01T23:23:27.271Z,71.90
2023-07-01T23:25:54.633Z,71.80
2023-07-01T23:28:22.040Z,71.90
2023-07-01T23:30:49.800Z,72.20
2023-07-01T23:33:18.230Z,72.30
2023-07-01T23:35:45.551Z,72.20
2023-07-01T23:38:13.799Z,72.00
2023-07-01T23:40:41.232Z,71.80
2023-07-01T23:43:08.817Z,71.50
2023-07-01T23:45:36.345Z,71.40
2023-07-01T23:48:03.796Z,71.30
2023-07-01T23:50:32.597Z,71.30
2023-07-01T23:53:03.249Z,71.30
2023-07-01T23:55:30.651Z,71.50
2023-07-01T23:57:58.585Z,71.40
